createdAt,value
2023-01-18T00:00:34.332Z,1.30
2023-01-18T00:03:02.327Z,1.40
2023-01-18T00:05:32.062Z,1.50
2023-01-18T00:07:59.955Z,1.60
2023-01-18T00:10:27.900Z,1.70
2023-01-18T00:12:56.338Z,1.70
2023-01-18T00:15:24.550Z,1.80
2023-01-18T00:17:52.520Z,1.80
2023-01-18T00:20:22.881Z,1.90
2023-01-18T00:22:52.863Z,1.90
2023-01-18T00:25:23.317Z,1.90
2023-01-18T00:27:52.778Z,2.00
2023-01-18T00:30:22.470Z,2.00
2023-01-18T00:32:53.312Z,2.00
2023-01-18T00:35:22.194Z,2.00
2023-01-18T00:37:52.662Z,2.10
2023-01-18T00:40:21.780Z,2.10
2023-01-18T00:43:07.533Z,2.10
2023-01-18T00:45:35.492Z,2.00
2023-01-18T00:48:04.003Z,2.00
2023-01-18T00:50:32.047Z,1.80
2023-01-18T00:53:01.435Z,1.70
2023-01-18T00:55:29.634Z,1.50
2023-01-18T00:57:57.499Z,1.50
2023-01-18T01:00:27.126Z,1.30
2023-01-18T01:02:56.461Z,1.30
2023-01-18T01:05:44.038Z,1.20
2023-01-18T01:08:17.754Z,1.20
2023-01-18T01:10:46.791Z,1.10
2023-01-18T01:13:33.631Z,1.10
2023-01-18T01:16:23.905Z,1.00
2023-01-18T01:19:10.244Z,1.10
2023-01-18T01:21:55.459Z,1.00
2023-01-18T01:24:43.025Z,1.00
2023-01-18T01:27:11.667Z,0.90
2023-01-18T01:29:39.749Z,0.90
2023-01-18T01:32:08.153Z,0.90
2023-01-18T01:34:36.252Z,0.90
2023-01-18T01:37:04.418Z,0.80
2023-01-18T01:39:33.650Z,0.80
2023-01-18T01:42:01.669Z,0.80
2023-01-18T01:44:50.203Z,0.80
2023-01-18T01:47:29.033Z,0.70
2023-01-18T01:50:01.341Z,0.70
2023-01-18T01:52:34.181Z,0.80
2023-01-18T01:55:09.732Z,0.80
2023-01-18T01:57:41.369Z,0.80
2023-01-18T02:00:12.173Z,0.90
2023-01-18T02:02:41.391Z,0.90
2023-01-18T02:05:11.145Z,1.00
2023-01-18T02:07:39.094Z,1.00
2023-01-18T02:10:09.404Z,1.00
2023-01-18T02:12:39.757Z,0.90
2023-01-18T02:15:09.146Z,1.00
2023-01-18T02:17:53.978Z,1.00
2023-01-18T02:21:07.018Z,1.10
2023-01-18T02:23:51.015Z,1.10
2023-01-18T02:27:11.007Z,1.20
2023-01-18T02:29:58.277Z,1.20
2023-01-18T02:32:35.936Z,1.10
2023-01-18T02:35:10.113Z,1.20
2023-01-18T02:37:45.468Z,1.20
2023-01-18T02:40:20.392Z,1.20
2023-01-18T02:43:07.183Z,1.30
2023-01-18T02:45:59.312Z,1.40
2023-01-18T02:48:34.201Z,1.40
2023-01-18T02:51:02.129Z,1.50
2023-01-18T02:53:31.148Z,1.50
2023-01-18T02:56:04.538Z,1.50
2023-01-18T02:58:35.842Z,1.60
2023-01-18T03:01:09.440Z,1.70
2023-01-18T03:03:38.787Z,1.70
2023-01-18T03:06:09.655Z,1.60
2023-01-18T03:08:42.444Z,1.50
2023-01-18T03:11:14.174Z,1.50
2023-01-18T03:13:57.377Z,1.40
2023-01-18T03:16:31.026Z,1.40
2023-01-18T03:19:03.064Z,1.40
2023-01-18T03:21:41.338Z,1.30
2023-01-18T03:24:10.146Z,1.30
2023-01-18T03:26:43.721Z,1.30
2023-01-18T03:29:30.687Z,1.30
2023-01-18T03:32:21.392Z,1.30
2023-01-18T03:34:54.527Z,1.30
2023-01-18T03:37:27.717Z,1.30
2023-01-18T03:39:58.934Z,1.40
2023-01-18T03:42:31.716Z,1.40
2023-01-18T03:45:07.865Z,1.50
2023-01-18T03:47:37.551Z,1.60
2023-01-18T03:50:06.648Z,1.60
2023-01-18T03:52:41.624Z,1.60
2023-01-18T03:55:15.383Z,1.60
2023-01-18T03:57:47.217Z,1.70
2023-01-18T04:00:16.005Z,1.70
2023-01-18T04:02:46.712Z,1.80
2023-01-18T04:05:14.766Z,1.80
2023-01-18T04:07:42.752Z,1.80
2023-01-18T04:10:12.272Z,1.80
2023-01-18T04:12:40.242Z,1.80
2023-01-18T04:15:09.093Z,1.80
2023-01-18T04:17:37.036Z,1.70
2023-01-18T04:20:07.641Z,1.70
2023-01-18T04:22:35.720Z,1.60
2023-01-18T04:25:03.816Z,1.50
2023-01-18T04:27:31.671Z,1.50
2023-01-18T04:30:00.437Z,1.40
2023-01-18T04:32:28.820Z,1.40
2023-01-18T04:34:56.706Z,1.40
2023-01-18T04:37:30.321Z,1.40
2023-01-18T04:39:58.717Z,1.40
2023-01-18T04:42:26.873Z,1.40
2023-01-18T04:44:54.911Z,1.30
2023-01-18T04:47:23.276Z,1.30
2023-01-18T04:49:51.211Z,1.30
2023-01-18T04:52:19.393Z,1.20
2023-01-18T04:54:48.758Z,1.20
2023-01-18T04:57:16.978Z,1.20
2023-01-18T04:59:46.527Z,1.10
2023-01-18T05:02:16.097Z,1.20
2023-01-18T05:04:44.965Z,1.20
2023-01-18T05:07:13.243Z,1.20
2023-01-18T05:09:41.181Z,1.20
2023-01-18T05:12:10.558Z,1.30
2023-01-18T05:14:38.567Z,1.30
2023-01-18T05:17:07.280Z,1.40
2023-01-18T05:19:35.373Z,1.40
2023-01-18T05:22:03.393Z,1.40
2023-01-18T05:24:31.275Z,1.40
2023-01-18T05:26:59.340Z,1.30
2023-01-18T05:29:28.729Z,1.30
2023-01-18T05:31:56.673Z,1.30
2023-01-18T05:34:24.563Z,1.30
2023-01-18T05:36:52.461Z,1.30
2023-01-18T05:39:20.384Z,1.30
2023-01-18T05:41:48.345Z,1.30
2023-01-18T05:44:16.397Z,1.30
2023-01-18T05:46:45.652Z,1.30
2023-01-18T05:49:13.787Z,1.30
2023-01-18T05:51:41.727Z,1.30
2023-01-18T05:54:09.691Z,1.30
2023-01-18T05:56:37.783Z,1.30
2023-01-18T05:59:05.838Z,1.20
2023-01-18T06:01:33.816Z,1.20
2023-01-18T06:04:03.811Z,1.20
2023-01-18T06:06:33.894Z,1.20
2023-01-18T06:09:03.305Z,1.20
2023-01-18T06:11:31.501Z,1.20
2023-01-18T06:13:59.466Z,1.30
2023-01-18T06:16:27.626Z,1.20
2023-01-18T06:18:55.877Z,1.30
2023-01-18T06:21:25.252Z,1.20
2023-01-18T06:23:53.249Z,1.30
2023-01-18T06:26:21.186Z,1.30
2023-01-18T06:28:49.165Z,1.20
2023-01-18T06:31:17.240Z,1.30
2023-01-18T06:33:45.244Z,1.30
2023-01-18T06:36:13.233Z,1.30
2023-01-18T06:38:42.584Z,1.30
2023-01-18T06:41:10.536Z,1.30
2023-01-18T06:43:38.618Z,1.30
2023-01-18T06:46:08.236Z,1.40
2023-01-18T06:48:36.386Z,1.40
2023-01-18T06:51:04.617Z,1.40
2023-01-18T06:53:32.563Z,1.30
2023-01-18T06:56:02.734Z,1.30
2023-01-18T06:58:32.659Z,1.30
2023-01-18T07:01:01.643Z,1.30
2023-01-18T07:03:31.684Z,1.30
2023-01-18T07:06:02.611Z,1.30
2023-01-18T07:08:31.920Z,1.30
2023-01-18T07:11:06.001Z,1.30
2023-01-18T07:13:34.002Z,1.30
2023-01-18T07:16:02.899Z,1.30
2023-01-18T07:18:32.012Z,1.20
2023-01-18T07:21:01.309Z,1.20
2023-01-18T07:23:30.388Z,1.20
2023-01-18T07:26:03.820Z,1.20
2023-01-18T07:28:32.783Z,1.20
2023-01-18T07:31:01.334Z,1.20
2023-01-18T07:33:29.767Z,1.10
2023-01-18T07:35:58.953Z,1.20
2023-01-18T07:38:27.218Z,1.20
2023-01-18T07:41:02.090Z,1.20
2023-01-18T07:43:31.734Z,1.20
2023-01-18T07:46:00.306Z,1.20
2023-01-18T07:48:29.031Z,1.20
2023-01-18T07:50:58.195Z,1.20
2023-01-18T07:53:27.394Z,1.20
2023-01-18T07:55:55.946Z,1.20
2023-01-18T07:58:23.977Z,1.20
2023-01-18T08:00:53.763Z,1.20
2023-01-18T08:03:22.363Z,1.20
2023-01-18T08:05:50.283Z,1.30
2023-01-18T08:08:18.832Z,1.30
2023-01-18T08:10:46.834Z,1.30
2023-01-18T08:13:14.987Z,1.30
2023-01-18T08:15:42.871Z,1.30
2023-01-18T08:18:12.968Z,1.30
2023-01-18T08:20:43.470Z,1.40
2023-01-18T08:23:11.400Z,1.40
2023-01-18T08:25:39.641Z,1.50
2023-01-18T08:28:07.710Z,1.50
2023-01-18T08:30:37.646Z,1.50
2023-01-18T08:33:07.674Z,1.50
2023-01-18T08:35:42.076Z,1.60
2023-01-18T08:38:10.761Z,1.60
2023-01-18T08:40:38.865Z,1.60
2023-01-18T08:43:07.588Z,1.60
2023-01-18T08:45:35.872Z,1.70
2023-01-18T08:48:06.028Z,1.70
2023-01-18T08:50:36.098Z,1.80
2023-01-18T08:53:04.984Z,1.90
2023-01-18T08:55:35.059Z,1.80
2023-01-18T08:58:02.921Z,1.90
2023-01-18T09:00:31.106Z,1.90
2023-01-18T09:03:01.791Z,1.90
2023-01-18T09:05:30.054Z,1.90
2023-01-18T09:07:59.338Z,1.90
2023-01-18T09:10:27.338Z,2.00
2023-01-18T09:12:56.596Z,2.10
2023-01-18T09:15:24.716Z,2.10
2023-01-18T09:17:52.574Z,2.20
2023-01-18T09:20:20.645Z,2.20
2023-01-18T09:22:48.835Z,2.30
2023-01-18T09:25:18.800Z,2.30
2023-01-18T09:27:47.552Z,2.30
2023-01-18T09:30:16.986Z,2.40
2023-01-18T09:32:45.090Z,2.30
2023-01-18T09:35:18.021Z,2.40
2023-01-18T09:37:46.508Z,2.40
2023-01-18T09:40:21.530Z,2.50
2023-01-18T09:42:51.572Z,2.40
2023-01-18T09:45:28.827Z,2.40
2023-01-18T09:48:02.164Z,2.40
2023-01-18T09:50:31.415Z,2.40
2023-01-18T09:53:09.089Z,2.50
2023-01-18T09:55:48.799Z,2.50
2023-01-18T09:58:42.928Z,2.50
2023-01-18T10:01:14.118Z,2.40
2023-01-18T10:03:50.305Z,2.30
2023-01-18T10:06:24.035Z,2.40
2023-01-18T10:08:58.162Z,2.40
2023-01-18T10:11:36.992Z,2.30
2023-01-18T10:14:09.307Z,2.40
2023-01-18T10:16:38.805Z,2.40
2023-01-18T10:19:16.284Z,2.50
2023-01-18T10:21:54.049Z,2.60
2023-01-18T10:24:30.594Z,2.60
2023-01-18T10:27:10.799Z,2.60
2023-01-18T10:30:01.328Z,2.50
2023-01-18T10:32:31.670Z,2.50
2023-01-18T10:35:03.254Z,2.40
2023-01-18T10:37:40.202Z,2.50
2023-01-18T10:40:10.227Z,2.40
2023-01-18T10:42:44.945Z,2.40
2023-01-18T10:45:20.025Z,2.40
2023-01-18T10:47:48.280Z,2.40
2023-01-18T10:50:18.373Z,2.40
2023-01-18T10:52:46.355Z,2.40
2023-01-18T10:55:17.517Z,2.40
2023-01-18T10:57:50.001Z,2.40
2023-01-18T11:00:27.727Z,2.40
2023-01-18T11:02:57.351Z,2.40
2023-01-18T11:05:30.425Z,2.40
2023-01-18T11:08:21.092Z,2.40
2023-01-18T11:10:59.942Z,2.50
2023-01-18T11:13:33.653Z,2.50
2023-01-18T11:16:17.976Z,2.50
2023-01-18T11:19:03.262Z,2.60
2023-01-18T11:21:44.471Z,2.60
2023-01-18T11:24:15.950Z,2.50
2023-01-18T11:27:00.268Z,2.50
2023-01-18T11:29:33.246Z,2.60
2023-01-18T11:32:06.963Z,2.60
2023-01-18T11:34:37.498Z,2.60
2023-01-18T11:37:26.185Z,2.50
2023-01-18T11:39:54.352Z,2.60
2023-01-18T11:42:26.291Z,2.50
2023-01-18T11:45:06.303Z,2.50
2023-01-18T11:47:44.501Z,2.50
2023-01-18T11:50:23.293Z,2.50
2023-01-18T11:52:55.194Z,2.50
2023-01-18T11:55:31.374Z,2.60
2023-01-18T11:58:00.743Z,2.50
2023-01-18T12:00:41.693Z,2.50
2023-01-18T12:03:26.929Z,2.50
2023-01-18T12:05:58.770Z,2.50
2023-01-18T12:08:44.163Z,2.60
2023-01-18T12:11:27.627Z,2.60
2023-01-18T12:14:01.086Z,2.60
2023-01-18T12:16:45.464Z,2.60
2023-01-18T12:19:39.246Z,2.60
2023-01-18T12:22:47.680Z,2.50
2023-01-18T12:25:27.719Z,2.50
2023-01-18T12:28:07.415Z,2.50
2023-01-18T12:30:56.283Z,2.50
2023-01-18T12:33:43.548Z,2.50
2023-01-18T12:36:29.309Z,2.50
2023-01-18T12:38:57.873Z,2.60
2023-01-18T12:41:37.730Z,2.50
2023-01-18T12:44:22.060Z,2.60
2023-01-18T12:47:01.316Z,2.60
2023-01-18T12:49:35.799Z,2.50
2023-01-18T12:52:18.056Z,2.50
2023-01-18T12:54:49.940Z,2.50
2023-01-18T12:57:19.635Z,2.50
2023-01-18T12:59:54.894Z,2.50
2023-01-18T13:02:28.712Z,2.50
2023-01-18T13:05:03.458Z,2.50
2023-01-18T13:07:35.596Z,2.50
2023-01-18T13:10:04.407Z,2.50
2023-01-18T13:12:33.269Z,2.50
2023-01-18T13:15:07.629Z,2.60
2023-01-18T13:17:41.433Z,2.60
2023-01-18T13:20:18.870Z,2.60
2023-01-18T13:22:57.514Z,2.60
2023-01-18T13:25:37.318Z,2.60
2023-01-18T13:28:14.863Z,2.60
2023-01-18T13:30:53.312Z,2.50
2023-01-18T13:33:25.045Z,2.60
2023-01-18T13:35:57.607Z,2.60
2023-01-18T13:38:40.153Z,2.50
2023-01-18T13:41:10.485Z,2.50
2023-01-18T13:44:05.412Z,2.50
2023-01-18T13:46:39.352Z,2.50
2023-01-18T13:49:38.219Z,2.50
2023-01-18T13:52:32.408Z,2.40
2023-01-18T13:55:25.922Z,2.40
2023-01-18T13:57:55.768Z,2.30
2023-01-18T14:00:25.476Z,2.30
2023-01-18T14:02:57.438Z,2.30
2023-01-18T14:05:27.353Z,2.20
2023-01-18T14:07:59.883Z,2.20
2023-01-18T14:10:30.407Z,2.20
2023-01-18T14:13:00.401Z,2.10
2023-01-18T14:15:38.017Z,2.20
2023-01-18T14:18:17.684Z,2.20
2023-01-18T14:21:19.065Z,2.20
2023-01-18T14:24:18.090Z,2.20
2023-01-18T14:26:47.001Z,2.30
2023-01-18T14:29:20.917Z,2.30
2023-01-18T14:31:52.709Z,2.30
2023-01-18T14:34:36.813Z,2.30
2023-01-18T14:37:05.481Z,2.30
2023-01-18T14:39:34.872Z,2.30
2023-01-18T14:42:05.717Z,2.30
2023-01-18T14:44:56.795Z,2.20
2023-01-18T14:47:28.613Z,2.20
2023-01-18T14:49:56.601Z,2.10
2023-01-18T14:52:28.660Z,2.10
2023-01-18T14:54:58.061Z,2.10
2023-01-18T14:57:26.135Z,2.00
2023-01-18T14:59:55.867Z,2.00
2023-01-18T15:02:29.095Z,2.00
2023-01-18T15:05:11.567Z,1.90
2023-01-18T15:07:40.249Z,1.90
2023-01-18T15:10:11.008Z,2.00
2023-01-18T15:12:40.047Z,1.90
2023-01-18T15:15:16.182Z,1.90
2023-01-18T15:17:44.259Z,1.80
2023-01-18T15:20:15.918Z,1.80
2023-01-18T15:22:44.078Z,1.90
2023-01-18T15:25:21.531Z,1.80
2023-01-18T15:27:52.376Z,1.80
2023-01-18T15:30:23.357Z,1.80
2023-01-18T15:32:55.729Z,1.80
2023-01-18T15:35:26.385Z,1.70
2023-01-18T15:37:54.819Z,1.70
2023-01-18T15:40:33.456Z,1.60
2023-01-18T15:43:08.444Z,1.70
2023-01-18T15:45:38.800Z,1.60
2023-01-18T15:48:09.686Z,1.70
2023-01-18T15:50:44.058Z,1.70
2023-01-18T15:53:18.839Z,1.70
2023-01-18T15:55:52.342Z,1.80
2023-01-18T15:58:29.936Z,1.80
2023-01-18T16:01:00.673Z,1.80
2023-01-18T16:03:33.353Z,1.80
2023-01-18T16:06:11.192Z,1.90
2023-01-18T16:08:56.560Z,1.90
2023-01-18T16:11:32.429Z,1.80
2023-01-18T16:14:01.969Z,1.80
2023-01-18T16:16:30.765Z,1.70
2023-01-18T16:19:06.233Z,1.60
2023-01-18T16:21:44.039Z,1.60
2023-01-18T16:24:17.706Z,1.50
2023-01-18T16:26:47.754Z,1.50
2023-01-18T16:29:16.203Z,1.40
2023-01-18T16:31:45.439Z,1.30
2023-01-18T16:34:34.608Z,1.30
2023-01-18T16:37:02.642Z,1.30
2023-01-18T16:39:30.724Z,1.20
2023-01-18T16:41:59.983Z,1.20
2023-01-18T16:44:28.025Z,1.30
2023-01-18T16:46:56.089Z,1.20
2023-01-18T16:49:24.099Z,1.30
2023-01-18T16:51:52.190Z,1.20
2023-01-18T16:54:20.307Z,1.20
2023-01-18T16:56:48.504Z,1.20
2023-01-18T16:59:21.607Z,1.20
2023-01-18T17:01:50.008Z,1.30
2023-01-18T17:04:18.318Z,1.30
2023-01-18T17:06:46.363Z,1.20
2023-01-18T17:09:23.381Z,1.20
2023-01-18T17:11:52.136Z,1.30
2023-01-18T17:14:22.180Z,1.20
2023-01-18T17:16:50.480Z,1.20
2023-01-18T17:19:20.847Z,1.20
2023-01-18T17:21:50.122Z,1.20
2023-01-18T17:24:20.993Z,1.20
2023-01-18T17:26:49.073Z,1.20
2023-01-18T17:29:21.188Z,1.20
2023-01-18T17:31:53.090Z,1.10
2023-01-18T17:34:28.053Z,1.20
2023-01-18T17:36:58.646Z,1.20
2023-01-18T17:39:37.330Z,1.20
2023-01-18T17:42:16.405Z,1.20
2023-01-18T17:44:47.230Z,1.10
2023-01-18T17:47:17.850Z,1.10
2023-01-18T17:49:45.947Z,1.10
2023-01-18T17:52:13.987Z,1.00
2023-01-18T17:54:42.136Z,1.10
2023-01-18T17:57:10.409Z,1.10
2023-01-18T17:59:38.359Z,1.10
2023-01-18T18:02:06.734Z,1.10
2023-01-18T18:04:36.096Z,1.10
2023-01-18T18:07:04.509Z,1.00
2023-01-18T18:09:38.612Z,1.00
2023-01-18T18:12:08.705Z,1.00
2023-01-18T18:14:37.820Z,1.00
2023-01-18T18:17:06.861Z,1.00
2023-01-18T18:19:36.709Z,1.00
2023-01-18T18:22:06.019Z,1.00
2023-01-18T18:24:33.918Z,1.00
2023-01-18T18:27:02.937Z,0.90
2023-01-18T18:29:31.236Z,0.90
2023-01-18T18:31:59.585Z,0.90
2023-01-18T18:34:27.680Z,0.90
2023-01-18T18:36:57.192Z,0.80
2023-01-18T18:39:25.126Z,0.90
2023-01-18T18:41:53.181Z,0.90
2023-01-18T18:44:21.228Z,0.80
2023-01-18T18:46:49.631Z,0.80
2023-01-18T18:49:17.675Z,0.80
2023-01-18T18:51:46.593Z,0.80
2023-01-18T18:54:16.190Z,0.80
2023-01-18T18:56:44.423Z,0.60
2023-01-18T18:59:12.685Z,0.50
2023-01-18T19:01:40.871Z,0.30
2023-01-18T19:04:09.480Z,0.20
2023-01-18T19:06:38.416Z,0.30
2023-01-18T19:09:07.462Z,0.20
2023-01-18T19:11:39.483Z,0.10
2023-01-18T19:14:07.747Z,0.10
2023-01-18T19:16:36.756Z,0.00
2023-01-18T19:19:04.807Z,-0.10
2023-01-18T19:21:33.398Z,-0.10
2023-01-18T19:24:01.433Z,0.00
2023-01-18T19:26:29.458Z,0.00
2023-01-18T19:28:58.965Z,0.10
2023-01-18T19:31:27.069Z,0.10
2023-01-18T19:33:56.390Z,0.20
2023-01-18T19:36:24.420Z,0.20
2023-01-18T19:38:59.328Z,0.20
2023-01-18T19:41:30.217Z,0.20
2023-01-18T19:43:59.874Z,0.10
2023-01-18T19:46:28.318Z,0.10
2023-01-18T19:48:59.312Z,0.10
2023-01-18T19:51:28.355Z,0.20
2023-01-18T19:53:57.926Z,0.30
2023-01-18T19:56:27.212Z,0.30
2023-01-18T19:58:55.137Z,0.40
2023-01-18T20:01:36.477Z,0.40
2023-01-18T20:04:06.092Z,0.40
2023-01-18T20:06:35.175Z,0.40
2023-01-18T20:09:07.364Z,0.40
2023-01-18T20:11:37.950Z,0.40
2023-01-18T20:14:05.911Z,0.40
2023-01-18T20:16:35.209Z,0.40
2023-01-18T20:19:03.255Z,0.40
2023-01-18T20:21:31.192Z,0.40
2023-01-18T20:23:59.198Z,0.40
2023-01-18T20:26:36.083Z,0.30
2023-01-18T20:29:06.536Z,0.30
2023-01-18T20:31:36.786Z,0.20
2023-01-18T20:34:05.261Z,0.20
2023-01-18T20:36:34.679Z,0.20
2023-01-18T20:39:02.781Z,0.20
2023-01-18T20:41:30.763Z,0.30
2023-01-18T20:43:58.725Z,0.30
2023-01-18T20:46:26.768Z,0.30
2023-01-18T20:48:56.144Z,0.30
2023-01-18T20:51:24.314Z,0.30
2023-01-18T20:53:52.449Z,0.30
2023-01-18T20:56:29.120Z,0.30
2023-01-18T20:58:58.047Z,0.40
2023-01-18T21:01:31.972Z,0.40
2023-01-18T21:04:02.974Z,0.40
2023-01-18T21:06:31.337Z,0.40
2023-01-18T21:09:00.950Z,0.30
2023-01-18T21:11:29.210Z,0.30
2023-01-18T21:14:01.305Z,0.30
2023-01-18T21:16:29.343Z,0.30
2023-01-18T21:18:58.918Z,0.20
2023-01-18T21:21:31.821Z,0.20
2023-01-18T21:24:00.927Z,0.30
2023-01-18T21:26:29.395Z,0.20
2023-01-18T21:28:57.537Z,0.20
2023-01-18T21:31:26.128Z,0.20
2023-01-18T21:33:55.361Z,0.10
2023-01-18T21:36:23.872Z,0.20
2023-01-18T21:38:53.632Z,0.10
2023-01-18T21:41:39.522Z,0.10
2023-01-18T21:44:25.094Z,0.00
2023-01-18T21:46:54.162Z,0.00
2023-01-18T21:50:11.409Z,0.00
2023-01-18T21:52:47.974Z,0.00
2023-01-18T21:55:19.090Z,0.00
2023-01-18T21:58:07.116Z,0.00
2023-01-18T22:00:38.107Z,0.00
2023-01-18T22:03:06.455Z,-0.10
2023-01-18T22:05:34.497Z,0.00
2023-01-18T22:08:02.725Z,0.00
2023-01-18T22:10:32.158Z,0.00
2023-01-18T22:13:00.136Z,0.00
2023-01-18T22:15:28.160Z,0.00
2023-01-18T22:17:56.328Z,-0.10
2023-01-18T22:20:24.870Z,-0.10
2023-01-18T22:22:54.347Z,-0.10
2023-01-18T22:25:22.431Z,-0.10
2023-01-18T22:27:51.840Z,-0.10
2023-01-18T22:30:20.063Z,-0.10
2023-01-18T22:32:48.037Z,-0.20
2023-01-18T22:35:16.207Z,-0.20
2023-01-18T22:37:44.201Z,-0.20
2023-01-18T22:40:13.232Z,-0.20
2023-01-18T22:42:41.203Z,-0.20
2023-01-18T22:45:11.563Z,-0.20
2023-01-18T22:47:39.503Z,-0.20
2023-01-18T22:50:08.201Z,-0.30
2023-01-18T22:52:36.224Z,-0.20
2023-01-18T22:55:04.230Z,-0.20
2023-01-18T22:57:32.234Z,-0.20
2023-01-18T23:00:00.200Z,-0.20
2023-01-18T23:02:29.604Z,-0.20
2023-01-18T23:04:57.539Z,-0.30
2023-01-18T23:07:25.804Z,-0.30
2023-01-18T23:09:53.737Z,-0.30
2023-01-18T23:12:21.779Z,-0.30
2023-01-18T23:15:07.029Z,-0.30
2023-01-18T23:17:43.276Z,-0.30
2023-01-18T23:20:14.834Z,-0.30
2023-01-18T23:22:44.640Z,-0.30
2023-01-18T23:25:12.501Z,-0.40
2023-01-18T23:27:40.547Z,-0.50
2023-01-18T23:30:09.976Z,-0.50
2023-01-18T23:32:39.350Z,-0.50
2023-01-18T23:35:08.529Z,-0.40
2023-01-18T23:37:36.586Z,-0.40
2023-01-18T23:40:22.314Z,-0.40
2023-01-18T23:43:11.010Z,-0.40
2023-01-18T23:45:56.271Z,-0.50
2023-01-18T23:48:43.164Z,-0.40
2023-01-18T23:51:28.721Z,-0.50
2023-01-18T23:54:16.609Z,-0.50
2023-01-18T23:56:45.481Z,-0.40
2023-01-18T23:59:14.792Z,-0.50
